sensor_id;sensor_type;location;lat;lon;timestamp;temperature;humidity
8872;DHT22;4472;52.092;9.820;2022-09-09T00:17:43;15.50;99.90
8872;DHT22;4472;52.092;9.820;2022-09-09T02:01:15;14.20;99.90
8872;DHT22;4472;52.092;9.820;2022-09-09T03:05:15;17.90;99.90
8872;DHT22;4472;52.092;9.820;2022-09-09T03:11:37;15.90;99.90
8872;DHT22;4472;52.092;9.820;2022-09-09T03:14:24;15.70;99.90
8872;DHT22;4472;52.092;9.820;2022-09-09T03:17:12;15.60;99.90
8872;DHT22;4472;52.092;9.820;2022-09-09T03:19:59;15.70;99.90
8872;DHT22;4472;52.092;9.820;2022-09-09T03:22:47;15.60;99.90
8872;DHT22;4472;52.092;9.820;2022-09-09T03:25:34;15.60;99.90
8872;DHT22;4472;52.092;9.820;2022-09-09T03:28:23;15.50;99.90
8872;DHT22;4472;52.092;9.820;2022-09-09T03:31:15;15.50;99.90
8872;DHT22;4472;52.092;9.820;2022-09-09T03:34:02;15.50;99.90
8872;DHT22;4472;52.092;9.820;2022-09-09T03:36:50;15.40;99.90
8872;DHT22;4472;52.092;9.820;2022-09-09T03:39:37;15.50;99.90
8872;DHT22;4472;52.092;9.820;2022-09-09T03:42:24;15.40;99.90
8872;DHT22;4472;52.092;9.820;2022-09-09T03:45:13;15.40;99.90
8872;DHT22;4472;52.092;9.820;2022-09-09T03:48:00;15.40;99.90
8872;DHT22;4472;52.092;9.820;2022-09-09T03:50:48;15.50;99.90
8872;DHT22;4472;52.092;9.820;2022-09-09T03:53:36;15.50;99.90
8872;DHT22;4472;52.092;9.820;2022-09-09T03:56:24;15.50;99.90
8872;DHT22;4472;52.092;9.820;2022-09-09T03:59:11;15.60;99.90
8872;DHT22;4472;52.092;9.820;2022-09-09T04:02:01;15.60;99.90
8872;DHT22;4472;52.092;9.820;2022-09-09T04:04:48;15.70;99.90
8872;DHT22;4472;52.092;9.820;2022-09-09T04:07:35;15.70;99.90
8872;DHT22;4472;52.092;9.820;2022-09-09T04:10:22;15.80;99.90
8872;DHT22;4472;52.092;9.820;2022-09-09T04:13:10;15.90;99.90
8872;DHT22;4472;52.092;9.820;2022-09-09T04:15:59;15.90;99.90
8872;DHT22;4472;52.092;9.820;2022-09-09T04:18:48;15.90;99.90
8872;DHT22;4472;52.092;9.820;2022-09-09T04:21:35;15.90;99.90
8872;DHT22;4472;52.092;9.820;2022-09-09T04:24:22;15.90;99.90
8872;DHT22;4472;52.092;9.820;2022-09-09T04:27:10;16.00;99.90
8872;DHT22;4472;52.092;9.820;2022-09-09T04:29:58;15.90;99.90
8872;DHT22;4472;52.092;9.820;2022-09-09T04:32:45;16.00;99.90
8872;DHT22;4472;52.092;9.820;2022-09-09T04:35:34;15.90;99.90
8872;DHT22;4472;52.092;9.820;2022-09-09T04:38:21;15.90;99.90
8872;DHT22;4472;52.092;9.820;2022-09-09T04:41:09;15.90;99.90
8872;DHT22;4472;52.092;9.820;2022-09-09T04:43:57;15.90;99.90
8872;DHT22;4472;52.092;9.820;2022-09-09T04:46:59;15.90;99.90
8872;DHT22;4472;52.092;9.820;2022-09-09T04:49:55;15.90;99.90
8872;DHT22;4472;52.092;9.820;2022-09-09T04:52:44;15.90;99.90
8872;DHT22;4472;52.092;9.820;2022-09-09T04:55:32;15.90;99.90
8872;DHT22;4472;52.092;9.820;2022-09-09T04:58:21;15.90;99.90
8872;DHT22;4472;52.092;9.820;2022-09-09T05:01:11;14.70;99.90
8872;DHT22;4472;52.092;9.820;2022-09-09T05:03:58;15.90;99.90
8872;DHT22;4472;52.092;9.820;2022-09-09T05:06:46;16.00;99.90
8872;DHT22;4472;52.092;9.820;2022-09-09T05:09:34;16.00;99.90
8872;DHT22;4472;52.092;9.820;2022-09-09T05:12:21;16.00;99.90
8872;DHT22;4472;52.092;9.820;2022-09-09T05:15:09;16.10;99.90
8872;DHT22;4472;52.092;9.820;2022-09-09T05:17:57;16.00;99.90
8872;DHT22;4472;52.092;9.820;2022-09-09T05:20:46;16.10;99.90
8872;DHT22;4472;52.092;9.820;2022-09-09T05:23:35;16.20;99.90
8872;DHT22;4472;52.092;9.820;2022-09-09T05:29:48;16.30;99.90
8872;DHT22;4472;52.092;9.820;2022-09-09T07:03:52;18.60;99.90
8872;DHT22;4472;52.092;9.820;2022-09-09T07:06:54;18.40;99.90
8872;DHT22;4472;52.092;9.820;2022-09-09T07:09:41;18.30;99.90
8872;DHT22;4472;52.092;9.820;2022-09-09T07:12:28;18.40;99.90
8872;DHT22;4472;52.092;9.820;2022-09-09T07:15:15;18.40;99.90
8872;DHT22;4472;52.092;9.820;2022-09-09T07:18:04;18.50;99.90
8872;DHT22;4472;52.092;9.820;2022-09-09T07:21:04;18.50;99.90
8872;DHT22;4472;52.092;9.820;2022-09-09T07:23:54;18.60;99.90
8872;DHT22;4472;52.092;9.820;2022-09-09T07:26:45;18.70;99.90
8872;DHT22;4472;52.092;9.820;2022-09-09T07:29:32;18.70;99.90
8872;DHT22;4472;52.092;9.820;2022-09-09T07:32:20;18.80;99.90
8872;DHT22;4472;52.092;9.820;2022-09-09T07:35:08;18.80;99.90
8872;DHT22;4472;52.092;9.820;2022-09-09T07:38:00;18.90;99.90
8872;DHT22;4472;52.092;9.820;2022-09-09T07:40:48;18.80;99.90
8872;DHT22;4472;52.092;9.820;2022-09-09T07:43:35;18.90;99.90
8872;DHT22;4472;52.092;9.820;2022-09-09T07:46:26;19.00;99.90
8872;DHT22;4472;52.092;9.820;2022-09-09T07:49:16;19.10;99.90
8872;DHT22;4472;52.092;9.820;2022-09-09T07:52:04;19.30;99.90
8872;DHT22;4472;52.092;9.820;2022-09-09T07:54:52;19.50;99.90
8872;DHT22;4472;52.092;9.820;2022-09-09T07:57:40;19.60;99.90
8872;DHT22;4472;52.092;9.820;2022-09-09T08:00:27;19.70;99.90
8872;DHT22;4472;52.092;9.820;2022-09-09T08:03:17;19.80;99.90
8872;DHT22;4472;52.092;9.820;2022-09-09T08:06:08;20.00;99.90
8872;DHT22;4472;52.092;9.820;2022-09-09T08:08:59;20.20;99.90
8872;DHT22;4472;52.092;9.820;2022-09-09T08:11:49;20.30;99.90
8872;DHT22;4472;52.092;9.820;2022-09-09T08:14:36;20.30;99.90
8872;DHT22;4472;52.092;9.820;2022-09-09T08:17:24;20.30;99.90
8872;DHT22;4472;52.092;9.820;2022-09-09T08:20:11;20.30;99.90
8872;DHT22;4472;52.092;9.820;2022-09-09T08:22:59;20.30;99.90
8872;DHT22;4472;52.092;9.820;2022-09-09T08:25:51;20.40;99.90
8872;DHT22;4472;52.092;9.820;2022-09-09T08:28:40;20.50;99.90
8872;DHT22;4472;52.092;9.820;2022-09-09T08:31:30;20.60;99.90
8872;DHT22;4472;52.092;9.820;2022-09-09T08:34:19;20.80;99.90
8872;DHT22;4472;52.092;9.820;2022-09-09T08:37:06;20.90;99.90
8872;DHT22;4472;52.092;9.820;2022-09-09T08:39:56;21.00;99.90
8872;DHT22;4472;52.092;9.820;2022-09-09T08:42:47;21.00;99.90
8872;DHT22;4472;52.092;9.820;2022-09-09T08:45:47;21.00;99.90
8872;DHT22;4472;52.092;9.820;2022-09-09T08:48:46;21.00;99.90
8872;DHT22;4472;52.092;9.820;2022-09-09T08:51:38;21.00;99.90
8872;DHT22;4472;52.092;9.820;2022-09-09T08:54:32;21.00;99.90
8872;DHT22;4472;52.092;9.820;2022-09-09T08:57:23;21.00;99.90
8872;DHT22;4472;52.092;9.820;2022-09-09T09:00:13;21.00;99.90
8872;DHT22;4472;52.092;9.820;2022-09-09T09:03:30;21.20;99.90
8872;DHT22;4472;52.092;9.820;2022-09-09T09:06:33;21.20;99.90
8872;DHT22;4472;52.092;9.820;2022-09-09T09:09:31;21.20;99.90
8872;DHT22;4472;52.092;9.820;2022-09-09T09:12:26;21.20;99.90
8872;DHT22;4472;52.092;9.820;2022-09-09T09:15:18;21.40;99.90
8872;DHT22;4472;52.092;9.820;2022-09-09T09:18:12;21.60;99.90
8872;DHT22;4472;52.092;9.820;2022-09-09T09:40:23;24.20;99.00
8872;DHT22;4472;52.092;9.820;2022-09-09T10:17:27;25.00;97.60
8872;DHT22;4472;52.092;9.820;2022-09-09T10:20:29;23.50;95.60
8872;DHT22;4472;52.092;9.820;2022-09-09T10:23:29;23.40;94.20
8872;DHT22;4472;52.092;9.820;2022-09-09T10:26:32;23.40;94.30
8872;DHT22;4472;52.092;9.820;2022-09-09T10:29:32;23.50;94.70
8872;DHT22;4472;52.092;9.820;2022-09-09T10:32:49;23.50;94.70
8872;DHT22;4472;52.092;9.820;2022-09-09T10:35:46;23.40;94.50
8872;DHT22;4472;52.092;9.820;2022-09-09T10:38:42;23.20;95.10
8872;DHT22;4472;52.092;9.820;2022-09-09T10:41:42;23.00;95.20
8872;DHT22;4472;52.092;9.820;2022-09-09T10:44:57;22.70;94.20
8872;DHT22;4472;52.092;9.820;2022-09-09T10:48:10;22.50;95.30
8872;DHT22;4472;52.092;9.820;2022-09-09T10:51:11;22.40;96.20
8872;DHT22;4472;52.092;9.820;2022-09-09T10:54:12;22.20;96.50
8872;DHT22;4472;52.092;9.820;2022-09-09T10:57:07;22.10;96.70
8872;DHT22;4472;52.092;9.820;2022-09-09T10:59:59;22.10;96.80
8872;DHT22;4472;52.092;9.820;2022-09-09T11:02:52;22.10;97.20
8872;DHT22;4472;52.092;9.820;2022-09-09T11:05:44;22.10;96.60
8872;DHT22;4472;52.092;9.820;2022-09-09T11:08:35;22.10;96.40
8872;DHT22;4472;52.092;9.820;2022-09-09T11:11:29;22.10;96.10
8872;DHT22;4472;52.092;9.820;2022-09-09T11:14:21;22.00;95.30
8872;DHT22;4472;52.092;9.820;2022-09-09T11:17:13;21.90;95.00
8872;DHT22;4472;52.092;9.820;2022-09-09T11:20:01;21.80;95.60
8872;DHT22;4472;52.092;9.820;2022-09-09T11:22:53;21.70;95.70
8872;DHT22;4472;52.092;9.820;2022-09-09T11:25:46;21.60;95.60
8872;DHT22;4472;52.092;9.820;2022-09-09T11:28:49;21.50;96.00
8872;DHT22;4472;52.092;9.820;2022-09-09T11:31:46;21.40;96.40
8872;DHT22;4472;52.092;9.820;2022-09-09T11:34:44;21.50;96.50
8872;DHT22;4472;52.092;9.820;2022-09-09T11:37:49;21.50;97.30
8872;DHT22;4472;52.092;9.820;2022-09-09T11:40:43;21.50;97.90
8872;DHT22;4472;52.092;9.820;2022-09-09T11:43:32;21.40;98.50
8872;DHT22;4472;52.092;9.820;2022-09-09T11:46:21;21.40;98.60
8872;DHT22;4472;52.092;9.820;2022-09-09T11:49:26;21.30;98.60
8872;DHT22;4472;52.092;9.820;2022-09-09T11:52:22;21.30;98.30
8872;DHT22;4472;52.092;9.820;2022-09-09T11:55:19;21.20;98.70
8872;DHT22;4472;52.092;9.820;2022-09-09T11:58:17;21.00;98.30
8872;DHT22;4472;52.092;9.820;2022-09-09T12:01:27;21.00;98.20
8872;DHT22;4472;52.092;9.820;2022-09-09T12:04:21;21.00;98.80
8872;DHT22;4472;52.092;9.820;2022-09-09T12:07:30;20.90;98.20
8872;DHT22;4472;52.092;9.820;2022-09-09T12:10:25;20.90;98.20
8872;DHT22;4472;52.092;9.820;2022-09-09T12:13:19;20.80;98.60
8872;DHT22;4472;52.092;9.820;2022-09-09T12:16:27;20.80;98.80
8872;DHT22;4472;52.092;9.820;2022-09-09T12:19:18;20.70;99.50
8872;DHT22;4472;52.092;9.820;2022-09-09T12:22:09;20.60;99.90
8872;DHT22;4472;52.092;9.820;2022-09-09T12:25:09;20.50;99.70
8872;DHT22;4472;52.092;9.820;2022-09-09T12:28:06;20.50;99.10
8872;DHT22;4472;52.092;9.820;2022-09-09T12:31:01;20.40;99.40
8872;DHT22;4472;52.092;9.820;2022-09-09T12:33:51;20.30;99.90
8872;DHT22;4472;52.092;9.820;2022-09-09T12:36:40;20.30;99.90
8872;DHT22;4472;52.092;9.820;2022-09-09T12:39:32;20.30;99.70
8872;DHT22;4472;52.092;9.820;2022-09-09T12:42:24;20.30;99.50
8872;DHT22;4472;52.092;9.820;2022-09-09T12:45:16;20.40;99.80
8872;DHT22;4472;52.092;9.820;2022-09-09T12:48:08;20.60;99.90
8872;DHT22;4472;52.092;9.820;2022-09-09T12:50:57;20.90;99.90
8872;DHT22;4472;52.092;9.820;2022-09-09T12:53:46;21.30;99.90
8872;DHT22;4472;52.092;9.820;2022-09-09T12:56:33;21.60;99.40
8872;DHT22;4472;52.092;9.820;2022-09-09T12:59:23;21.70;98.90
8872;DHT22;4472;52.092;9.820;2022-09-09T13:02:18;21.80;98.70
8872;DHT22;4472;52.092;9.820;2022-09-09T13:05:16;21.80;98.70
8872;DHT22;4472;52.092;9.820;2022-09-09T13:08:05;21.80;98.10
8872;DHT22;4472;52.092;9.820;2022-09-09T13:10:55;21.80;97.90
8872;DHT22;4472;52.092;9.820;2022-09-09T13:13:51;21.80;97.60
8872;DHT22;4472;52.092;9.820;2022-09-09T13:16:39;22.00;98.30
8872;DHT22;4472;52.092;9.820;2022-09-09T13:19:30;22.10;98.40
8872;DHT22;4472;52.092;9.820;2022-09-09T13:22:26;22.30;97.50
8872;DHT22;4472;52.092;9.820;2022-09-09T13:25:21;22.70;96.70
8872;DHT22;4472;52.092;9.820;2022-09-09T13:28:20;22.90;96.00
8872;DHT22;4472;52.092;9.820;2022-09-09T13:31:21;23.30;95.90
8872;DHT22;4472;52.092;9.820;2022-09-09T13:34:12;23.50;94.70
8872;DHT22;4472;52.092;9.820;2022-09-09T13:37:01;23.60;94.80
8872;DHT22;4472;52.092;9.820;2022-09-09T13:39:53;23.70;94.90
8872;DHT22;4472;52.092;9.820;2022-09-09T13:42:41;23.80;94.80
8872;DHT22;4472;52.092;9.820;2022-09-09T13:45:29;23.80;94.90
8872;DHT22;4472;52.092;9.820;2022-09-09T13:48:18;23.90;95.00
8872;DHT22;4472;52.092;9.820;2022-09-09T13:51:22;23.80;94.60
8872;DHT22;4472;52.092;9.820;2022-09-09T13:54:16;23.60;93.40
8872;DHT22;4472;52.092;9.820;2022-09-09T13:57:05;23.50;94.40
8872;DHT22;4472;52.092;9.820;2022-09-09T13:59:53;23.50;94.60
8872;DHT22;4472;52.092;9.820;2022-09-09T14:02:42;23.60;94.60
8872;DHT22;4472;52.092;9.820;2022-09-09T14:05:31;23.70;93.80
8872;DHT22;4472;52.092;9.820;2022-09-09T14:08:24;23.80;92.80
8872;DHT22;4472;52.092;9.820;2022-09-09T14:11:13;23.70;93.20
8872;DHT22;4472;52.092;9.820;2022-09-09T14:14:01;23.60;93.40
8872;DHT22;4472;52.092;9.820;2022-09-09T14:16:49;23.50;92.90
8872;DHT22;4472;52.092;9.820;2022-09-09T14:19:36;23.50;92.90
8872;DHT22;4472;52.092;9.820;2022-09-09T14:22:33;23.40;92.70
8872;DHT22;4472;52.092;9.820;2022-09-09T14:25:21;23.40;92.40
8872;DHT22;4472;52.092;9.820;2022-09-09T14:28:10;23.30;91.90
8872;DHT22;4472;52.092;9.820;2022-09-09T14:31:03;23.10;91.10
8872;DHT22;4472;52.092;9.820;2022-09-09T14:33:51;22.90;90.70
8872;DHT22;4472;52.092;9.820;2022-09-09T14:36:38;22.70;90.60
8872;DHT22;4472;52.092;9.820;2022-09-09T14:39:26;22.60;90.80
8872;DHT22;4472;52.092;9.820;2022-09-09T14:42:14;22.40;91.10
8872;DHT22;4472;52.092;9.820;2022-09-09T14:45:01;22.30;91.50
8872;DHT22;4472;52.092;9.820;2022-09-09T14:47:51;22.30;92.10
8872;DHT22;4472;52.092;9.820;2022-09-09T14:50:38;22.40;92.40
8872;DHT22;4472;52.092;9.820;2022-09-09T14:53:26;22.60;92.30
8872;DHT22;4472;52.092;9.820;2022-09-09T14:56:15;22.80;91.60
8872;DHT22;4472;52.092;9.820;2022-09-09T14:59:03;22.90;91.90
8872;DHT22;4472;52.092;9.820;2022-09-09T15:01:50;23.00;91.90
8872;DHT22;4472;52.092;9.820;2022-09-09T15:04:38;23.00;91.60
8872;DHT22;4472;52.092;9.820;2022-09-09T15:07:26;23.00;92.00
8872;DHT22;4472;52.092;9.820;2022-09-09T15:10:14;23.00;91.90
8872;DHT22;4472;52.092;9.820;2022-09-09T15:13:02;22.70;91.80
8872;DHT22;4472;52.092;9.820;2022-09-09T15:15:50;22.80;91.90
8872;DHT22;4472;52.092;9.820;2022-09-09T15:18:38;22.80;92.30
8872;DHT22;4472;52.092;9.820;2022-09-09T15:21:31;22.70;92.00
8872;DHT22;4472;52.092;9.820;2022-09-09T15:24:19;22.60;91.80
8872;DHT22;4472;52.092;9.820;2022-09-09T15:27:06;22.60;92.30
8872;DHT22;4472;52.092;9.820;2022-09-09T15:29:53;22.50;92.10
8872;DHT22;4472;52.092;9.820;2022-09-09T15:32:41;22.40;91.40
8872;DHT22;4472;52.092;9.820;2022-09-09T15:35:29;22.40;91.50
8872;DHT22;4472;52.092;9.820;2022-09-09T15:38:18;22.30;91.40
8872;DHT22;4472;52.092;9.820;2022-09-09T15:41:05;22.30;91.50
8872;DHT22;4472;52.092;9.820;2022-09-09T15:43:56;22.20;91.60
8872;DHT22;4472;52.092;9.820;2022-09-09T15:46:44;22.20;91.60
8872;DHT22;4472;52.092;9.820;2022-09-09T15:49:32;22.20;92.00
8872;DHT22;4472;52.092;9.820;2022-09-09T15:52:19;22.20;91.70
8872;DHT22;4472;52.092;9.820;2022-09-09T15:55:08;22.10;91.80
8872;DHT22;4472;52.092;9.820;2022-09-09T15:57:55;22.10;92.10
8872;DHT22;4472;52.092;9.820;2022-09-09T16:00:43;22.10;92.20
8872;DHT22;4472;52.092;9.820;2022-09-09T16:03:34;22.00;91.90
8872;DHT22;4472;52.092;9.820;2022-09-09T16:06:22;22.00;92.20
8872;DHT22;4472;52.092;9.820;2022-09-09T16:09:10;22.00;91.90
8872;DHT22;4472;52.092;9.820;2022-09-09T16:11:59;21.90;92.10
8872;DHT22;4472;52.092;9.820;2022-09-09T16:14:48;21.90;92.30
8872;DHT22;4472;52.092;9.820;2022-09-09T16:17:36;21.80;92.50
8872;DHT22;4472;52.092;9.820;2022-09-09T16:20:24;21.80;92.70
8872;DHT22;4472;52.092;9.820;2022-09-09T16:23:11;21.70;92.50
8872;DHT22;4472;52.092;9.820;2022-09-09T16:25:58;21.70;92.50
8872;DHT22;4472;52.092;9.820;2022-09-09T16:28:47;21.70;92.80
8872;DHT22;4472;52.092;9.820;2022-09-09T16:31:34;21.60;92.60
8872;DHT22;4472;52.092;9.820;2022-09-09T16:34:22;21.60;93.10
8872;DHT22;4472;52.092;9.820;2022-09-09T16:37:09;21.50;93.20
8872;DHT22;4472;52.092;9.820;2022-09-09T16:39:57;21.50;93.40
8872;DHT22;4472;52.092;9.820;2022-09-09T16:42:44;21.50;93.80
8872;DHT22;4472;52.092;9.820;2022-09-09T16:45:33;21.60;93.90
8872;DHT22;4472;52.092;9.820;2022-09-09T16:48:20;21.60;94.10
8872;DHT22;4472;52.092;9.820;2022-09-09T16:51:13;21.60;94.10
8872;DHT22;4472;52.092;9.820;2022-09-09T16:54:02;21.60;94.20
8872;DHT22;4472;52.092;9.820;2022-09-09T16:56:52;21.40;94.30
8872;DHT22;4472;52.092;9.820;2022-09-09T16:59:39;21.30;94.80
8872;DHT22;4472;52.092;9.820;2022-09-09T17:02:29;21.20;95.10
8872;DHT22;4472;52.092;9.820;2022-09-09T17:05:16;21.10;95.20
8872;DHT22;4472;52.092;9.820;2022-09-09T17:08:04;21.00;95.50
8872;DHT22;4472;52.092;9.820;2022-09-09T17:10:51;20.90;95.60
8872;DHT22;4472;52.092;9.820;2022-09-09T17:13:38;20.80;95.50
8872;DHT22;4472;52.092;9.820;2022-09-09T17:16:27;20.70;95.60
8872;DHT22;4472;52.092;9.820;2022-09-09T17:19:16;20.70;95.90
8872;DHT22;4472;52.092;9.820;2022-09-09T17:22:04;20.60;96.50
8872;DHT22;4472;52.092;9.820;2022-09-09T17:24:52;20.60;96.10
8872;DHT22;4472;52.092;9.820;2022-09-09T17:27:40;20.50;95.80
8872;DHT22;4472;52.092;9.820;2022-09-09T17:30:27;20.50;96.20
8872;DHT22;4472;52.092;9.820;2022-09-09T17:33:16;20.40;96.30
8872;DHT22;4472;52.092;9.820;2022-09-09T17:36:07;20.40;96.40
8872;DHT22;4472;52.092;9.820;2022-09-09T17:38:56;20.30;96.20
8872;DHT22;4472;52.092;9.820;2022-09-09T17:41:43;20.30;96.50
8872;DHT22;4472;52.092;9.820;2022-09-09T17:44:31;20.20;96.60
8872;DHT22;4472;52.092;9.820;2022-09-09T17:47:19;20.20;96.70
8872;DHT22;4472;52.092;9.820;2022-09-09T17:50:07;20.10;97.30
8872;DHT22;4472;52.092;9.820;2022-09-09T17:52:55;20.10;97.70
8872;DHT22;4472;52.092;9.820;2022-09-09T17:55:44;20.00;97.60
8872;DHT22;4472;52.092;9.820;2022-09-09T17:58:32;19.90;98.20
8872;DHT22;4472;52.092;9.820;2022-09-09T18:01:20;19.80;98.30
8872;DHT22;4472;52.092;9.820;2022-09-09T18:04:09;19.70;98.70
8872;DHT22;4472;52.092;9.820;2022-09-09T18:06:58;19.70;98.90
8872;DHT22;4472;52.092;9.820;2022-09-09T18:09:48;19.50;99.00
8872;DHT22;4472;52.092;9.820;2022-09-09T18:12:35;19.40;98.80
8872;DHT22;4472;52.092;9.820;2022-09-09T18:15:22;19.40;98.50
8872;DHT22;4472;52.092;9.820;2022-09-09T18:18:10;19.40;98.60
8872;DHT22;4472;52.092;9.820;2022-09-09T18:20:58;19.40;98.50
8872;DHT22;4472;52.092;9.820;2022-09-09T18:23:46;19.40;98.00
8872;DHT22;4472;52.092;9.820;2022-09-09T18:26:39;19.40;97.90
8872;DHT22;4472;52.092;9.820;2022-09-09T18:29:27;19.50;97.60
8872;DHT22;4472;52.092;9.820;2022-09-09T18:32:14;19.50;97.50
8872;DHT22;4472;52.092;9.820;2022-09-09T18:35:05;19.50;97.20
8872;DHT22;4472;52.092;9.820;2022-09-09T18:37:52;19.60;97.30
8872;DHT22;4472;52.092;9.820;2022-09-09T18:40:40;19.50;97.20
8872;DHT22;4472;52.092;9.820;2022-09-09T18:43:28;19.50;96.90
8872;DHT22;4472;52.092;9.820;2022-09-09T18:46:16;19.50;97.00
8872;DHT22;4472;52.092;9.820;2022-09-09T18:49:04;19.50;96.80
8872;DHT22;4472;52.092;9.820;2022-09-09T18:51:51;19.50;96.80
8872;DHT22;4472;52.092;9.820;2022-09-09T18:54:39;19.60;96.90
8872;DHT22;4472;52.092;9.820;2022-09-09T18:57:28;19.60;96.80
8872;DHT22;4472;52.092;9.820;2022-09-09T19:00:17;19.50;96.90
8872;DHT22;4472;52.092;9.820;2022-09-09T19:03:04;19.40;97.00
8872;DHT22;4472;52.092;9.820;2022-09-09T19:05:52;19.30;97.00
8872;DHT22;4472;52.092;9.820;2022-09-09T19:08:40;19.30;97.10
8872;DHT22;4472;52.092;9.820;2022-09-09T19:11:28;19.20;97.10
8872;DHT22;4472;52.092;9.820;2022-09-09T19:14:16;19.10;97.00
8872;DHT22;4472;52.092;9.820;2022-09-09T19:17:05;19.10;97.20
8872;DHT22;4472;52.092;9.820;2022-09-09T19:19:52;19.00;97.20
8872;DHT22;4472;52.092;9.820;2022-09-09T19:22:39;19.00;97.00
8872;DHT22;4472;52.092;9.820;2022-09-09T19:25:27;18.90;97.10
8872;DHT22;4472;52.092;9.820;2022-09-09T19:28:14;18.80;97.10
8872;DHT22;4472;52.092;9.820;2022-09-09T19:31:02;18.80;97.50
8872;DHT22;4472;52.092;9.820;2022-09-09T19:33:51;18.70;98.10
8872;DHT22;4472;52.092;9.820;2022-09-09T19:36:41;18.70;98.30
8872;DHT22;4472;52.092;9.820;2022-09-09T19:39:28;18.60;98.70
8872;DHT22;4472;52.092;9.820;2022-09-09T19:42:16;18.60;98.90
8872;DHT22;4472;52.092;9.820;2022-09-09T19:45:04;18.50;99.30
8872;DHT22;4472;52.092;9.820;2022-09-09T19:47:53;18.50;99.50
8872;DHT22;4472;52.092;9.820;2022-09-09T19:50:42;18.40;99.40
8872;DHT22;4472;52.092;9.820;2022-09-09T19:53:29;18.40;99.70
8872;DHT22;4472;52.092;9.820;2022-09-09T19:56:18;18.30;99.70
8872;DHT22;4472;52.092;9.820;2022-09-09T19:59:08;18.20;99.90
8872;DHT22;4472;52.092;9.820;2022-09-09T20:01:55;18.10;99.90
8872;DHT22;4472;52.092;9.820;2022-09-09T20:04:43;18.10;99.90
8872;DHT22;4472;52.092;9.820;2022-09-09T20:07:31;18.00;99.90
8872;DHT22;4472;52.092;9.820;2022-09-09T20:10:19;17.90;99.90
8872;DHT22;4472;52.092;9.820;2022-09-09T20:13:06;17.90;99.90
8872;DHT22;4472;52.092;9.820;2022-09-09T20:15:57;17.80;99.90
8872;DHT22;4472;52.092;9.820;2022-09-09T20:18:48;17.70;99.90
8872;DHT22;4472;52.092;9.820;2022-09-09T20:21:38;17.70;99.90
8872;DHT22;4472;52.092;9.820;2022-09-09T20:24:27;17.60;99.90
8872;DHT22;4472;52.092;9.820;2022-09-09T20:27:14;17.50;99.90
8872;DHT22;4472;52.092;9.820;2022-09-09T20:30:02;17.50;99.90
8872;DHT22;4472;52.092;9.820;2022-09-09T20:32:49;17.40;99.90
8872;DHT22;4472;52.092;9.820;2022-09-09T20:35:37;17.30;99.90
8872;DHT22;4472;52.092;9.820;2022-09-09T20:38:24;17.20;99.90
8872;DHT22;4472;52.092;9.820;2022-09-09T20:41:14;17.10;99.90
8872;DHT22;4472;52.092;9.820;2022-09-09T20:44:05;17.10;99.90
8872;DHT22;4472;52.092;9.820;2022-09-09T20:46:54;17.00;99.90
8872;DHT22;4472;52.092;9.820;2022-09-09T20:49:47;16.90;99.90
8872;DHT22;4472;52.092;9.820;2022-09-09T20:52:34;16.80;99.90
8872;DHT22;4472;52.092;9.820;2022-09-09T20:55:22;16.80;99.90
8872;DHT22;4472;52.092;9.820;2022-09-09T20:58:13;16.80;99.90
8872;DHT22;4472;52.092;9.820;2022-09-09T21:01:00;16.80;99.90
8872;DHT22;4472;52.092;9.820;2022-09-09T21:03:48;16.70;99.90
8872;DHT22;4472;52.092;9.820;2022-09-09T21:06:35;16.70;99.90
8872;DHT22;4472;52.092;9.820;2022-09-09T21:09:22;16.70;99.90
8872;DHT22;4472;52.092;9.820;2022-09-09T21:12:09;16.60;99.90
8872;DHT22;4472;52.092;9.820;2022-09-09T21:14:58;16.60;99.90
8872;DHT22;4472;52.092;9.820;2022-09-09T21:17:46;16.60;99.90
8872;DHT22;4472;52.092;9.820;2022-09-09T21:20:33;16.60;99.90
8872;DHT22;4472;52.092;9.820;2022-09-09T21:23:20;16.60;99.90
8872;DHT22;4472;52.092;9.820;2022-09-09T21:26:08;16.60;99.90
8872;DHT22;4472;52.092;9.820;2022-09-09T21:28:55;16.60;99.90
8872;DHT22;4472;52.092;9.820;2022-09-09T21:31:44;16.60;99.90
8872;DHT22;4472;52.092;9.820;2022-09-09T21:34:33;16.60;99.90
8872;DHT22;4472;52.092;9.820;2022-09-09T21:37:20;16.60;99.90
8872;DHT22;4472;52.092;9.820;2022-09-09T21:40:08;16.70;99.90
8872;DHT22;4472;52.092;9.820;2022-09-09T21:42:55;16.70;99.90
8872;DHT22;4472;52.092;9.820;2022-09-09T21:45:44;16.80;99.90
8872;DHT22;4472;52.092;9.820;2022-09-09T21:48:33;16.80;99.90
8872;DHT22;4472;52.092;9.820;2022-09-09T21:51:21;16.80;99.90
8872;DHT22;4472;52.092;9.820;2022-09-09T21:54:08;16.80;99.90
8872;DHT22;4472;52.092;9.820;2022-09-09T21:56:55;16.80;99.90
8872;DHT22;4472;52.092;9.820;2022-09-09T21:59:42;16.80;99.90
8872;DHT22;4472;52.092;9.820;2022-09-09T22:02:29;16.80;99.90
8872;DHT22;4472;52.092;9.820;2022-09-09T22:05:19;16.90;99.90
8872;DHT22;4472;52.092;9.820;2022-09-09T22:08:06;16.90;99.90
8872;DHT22;4472;52.092;9.820;2022-09-09T22:10:53;16.90;99.90
8872;DHT22;4472;52.092;9.820;2022-09-09T22:13:40;17.00;99.90
8872;DHT22;4472;52.092;9.820;2022-09-09T22:16:29;17.00;99.90
8872;DHT22;4472;52.092;9.820;2022-09-09T22:19:17;17.00;99.90
8872;DHT22;4472;52.092;9.820;2022-09-09T22:22:05;17.00;99.90
8872;DHT22;4472;52.092;9.820;2022-09-09T22:24:53;17.00;99.90
8872;DHT22;4472;52.092;9.820;2022-09-09T22:27:40;17.00;99.90
8872;DHT22;4472;52.092;9.820;2022-09-09T22:30:27;17.00;99.90
8872;DHT22;4472;52.092;9.820;2022-09-09T22:33:14;17.00;99.90
8872;DHT22;4472;52.092;9.820;2022-09-09T22:36:05;17.00;99.90
8872;DHT22;4472;52.092;9.820;2022-09-09T22:38:54;17.00;99.90
8872;DHT22;4472;52.092;9.820;2022-09-09T22:41:41;17.00;99.90
8872;DHT22;4472;52.092;9.820;2022-09-09T22:44:28;17.00;99.90
8872;DHT22;4472;52.092;9.820;2022-09-09T22:47:16;17.00;99.90
8872;DHT22;4472;52.092;9.820;2022-09-09T22:50:05;17.00;99.90
8872;DHT22;4472;52.092;9.820;2022-09-09T22:52:52;17.00;99.90
8872;DHT22;4472;52.092;9.820;2022-09-09T22:55:41;17.00;99.90
8872;DHT22;4472;52.092;9.820;2022-09-09T22:58:30;17.10;99.90
8872;DHT22;4472;52.092;9.820;2022-09-09T23:01:19;17.10;99.90
8872;DHT22;4472;52.092;9.820;2022-09-09T23:04:06;17.10;99.90
8872;DHT22;4472;52.092;9.820;2022-09-09T23:06:53;17.10;99.90
8872;DHT22;4472;52.092;9.820;2022-09-09T23:09:40;17.10;99.90
8872;DHT22;4472;52.092;9.820;2022-09-09T23:12:29;17.10;99.90
8872;DHT22;4472;52.092;9.820;2022-09-09T23:15:16;17.10;99.90
8872;DHT22;4472;52.092;9.820;2022-09-09T23:18:03;17.10;99.90
8872;DHT22;4472;52.092;9.820;2022-09-09T23:20:55;17.10;99.90
8872;DHT22;4472;52.092;9.820;2022-09-09T23:23:45;17.10;99.90
8872;DHT22;4472;52.092;9.820;2022-09-09T23:26:32;17.10;99.90
8872;DHT22;4472;52.092;9.820;2022-09-09T23:29:21;17.10;99.90
8872;DHT22;4472;52.092;9.820;2022-09-09T23:32:08;17.10;99.90
8872;DHT22;4472;52.092;9.820;2022-09-09T23:34:55;17.20;99.90
8872;DHT22;4472;52.092;9.820;2022-09-09T23:37:43;17.10;99.90
8872;DHT22;4472;52.092;9.820;2022-09-09T23:40:30;17.10;99.90
8872;DHT22;4472;52.092;9.820;2022-09-09T23:43:17;17.10;99.90
8872;DHT22;4472;52.092;9.820;2022-09-09T23:46:10;17.10;99.90
8872;DHT22;4472;52.092;9.820;2022-09-09T23:48:58;17.10;99.90
8872;DHT22;4472;52.092;9.820;2022-09-09T23:51:47;17.00;99.90
8872;DHT22;4472;52.092;9.820;2022-09-09T23:54:34;16.90;99.90
8872;DHT22;4472;52.092;9.820;2022-09-09T23:57:22;16.90;99.90
